sensor_id;sensor_type;location;lat;lon;timestamp;pressure;altitude;pressure_sealevel;temperature;humidity
7768;BME280;3928;42.626;23.382;2022-10-31T00:01:45;94652.47;;;16.60;50.25
7768;BME280;3928;42.626;23.382;2022-10-31T00:04:12;94645.91;;;16.50;50.49
7768;BME280;3928;42.626;23.382;2022-10-31T00:06:39;94640.53;;;16.29;51.30
7768;BME280;3928;42.626;23.382;2022-10-31T00:09:05;94634.88;;;16.18;51.98
7768;BME280;3928;42.626;23.382;2022-10-31T00:11:33;94640.44;;;16.06;52.12
7768;BME280;3928;42.626;23.382;2022-10-31T00:14:02;94647.41;;;16.04;52.69
7768;BME280;3928;42.626;23.382;2022-10-31T00:16:29;94645.50;;;16.11;52.61
7768;BME280;3928;42.626;23.382;2022-10-31T00:18:58;94635.09;;;16.12;52.36
7768;BME280;3928;42.626;23.382;2022-10-31T00:21:25;94641.56;;;16.25;52.05
7768;BME280;3928;42.626;23.382;2022-10-31T00:23:52;94641.28;;;16.33;52.16
7768;BME280;3928;42.626;23.382;2022-10-31T00:26:19;94633.50;;;16.33;52.31
7768;BME280;3928;42.626;23.382;2022-10-31T00:28:48;94646.31;;;16.37;51.78
7768;BME280;3928;42.626;23.382;2022-10-31T00:31:16;94650.91;;;16.29;52.24
7768;BME280;3928;42.626;23.382;2022-10-31T00:33:43;94644.31;;;16.19;52.37
7768;BME280;3928;42.626;23.382;2022-10-31T00:36:11;94644.53;;;16.13;52.61
7768;BME280;3928;42.626;23.382;2022-10-31T00:38:39;94653.78;;;16.20;52.76
7768;BME280;3928;42.626;23.382;2022-10-31T00:41:05;94635.72;;;16.19;52.71
7768;BME280;3928;42.626;23.382;2022-10-31T00:43:32;94638.34;;;16.17;52.74
7768;BME280;3928;42.626;23.382;2022-10-31T00:46:00;94641.00;;;16.16;52.89
7768;BME280;3928;42.626;23.382;2022-10-31T00:48:27;94646.19;;;16.16;53.27
7768;BME280;3928;42.626;23.382;2022-10-31T00:50:54;94642.91;;;16.11;53.41
7768;BME280;3928;42.626;23.382;2022-10-31T00:53:21;94643.88;;;16.06;53.76
7768;BME280;3928;42.626;23.382;2022-10-31T00:55:47;94630.31;;;16.00;53.68
7768;BME280;3928;42.626;23.382;2022-10-31T00:58:14;94636.97;;;16.07;53.86
7768;BME280;3928;42.626;23.382;2022-10-31T01:00:41;94642.34;;;16.01;54.35
7768;BME280;3928;42.626;23.382;2022-10-31T01:03:09;94645.72;;;16.03;54.73
7768;BME280;3928;42.626;23.382;2022-10-31T01:05:36;94636.50;;;15.94;54.34
7768;BME280;3928;42.626;23.382;2022-10-31T01:08:03;94642.53;;;15.95;55.29
7768;BME280;3928;42.626;23.382;2022-10-31T01:10:30;94649.50;;;15.93;55.12
7768;BME280;3928;42.626;23.382;2022-10-31T01:12:57;94651.31;;;15.91;55.69
7768;BME280;3928;42.626;23.382;2022-10-31T01:15:24;94646.25;;;15.86;55.27
7768;BME280;3928;42.626;23.382;2022-10-31T01:17:51;94641.97;;;15.85;55.58
7768;BME280;3928;42.626;23.382;2022-10-31T01:20:20;94639.53;;;15.81;55.48
7768;BME280;3928;42.626;23.382;2022-10-31T01:22:47;94653.16;;;15.86;56.13
7768;BME280;3928;42.626;23.382;2022-10-31T01:25:14;94655.88;;;15.83;55.64
7768;BME280;3928;42.626;23.382;2022-10-31T01:27:40;94645.84;;;15.72;56.36
7768;BME280;3928;42.626;23.382;2022-10-31T01:30:08;94663.25;;;15.67;56.58
7768;BME280;3928;42.626;23.382;2022-10-31T01:32:35;94658.22;;;15.62;57.62
7768;BME280;3928;42.626;23.382;2022-10-31T01:35:02;94660.88;;;15.59;57.39
7768;BME280;3928;42.626;23.382;2022-10-31T01:37:30;94661.91;;;15.54;58.42
7768;BME280;3928;42.626;23.382;2022-10-31T01:39:57;94656.75;;;15.54;58.78
7768;BME280;3928;42.626;23.382;2022-10-31T01:42:24;94656.78;;;15.52;58.56
7768;BME280;3928;42.626;23.382;2022-10-31T01:44:56;94624.59;;;15.33;58.96
7768;BME280;3928;42.626;23.382;2022-10-31T01:47:39;94671.31;;;15.56;59.06
7768;BME280;3928;42.626;23.382;2022-10-31T01:50:13;94666.03;;;15.59;59.51
7768;BME280;3928;42.626;23.382;2022-10-31T01:52:44;94666.03;;;15.59;59.19
7768;BME280;3928;42.626;23.382;2022-10-31T01:55:15;94669.53;;;15.58;59.59
7768;BME280;3928;42.626;23.382;2022-10-31T01:57:44;94666.03;;;15.59;59.30
7768;BME280;3928;42.626;23.382;2022-10-31T02:00:13;94656.50;;;15.63;59.35
7768;BME280;3928;42.626;23.382;2022-10-31T02:02:41;94663.31;;;15.65;59.30
7768;BME280;3928;42.626;23.382;2022-10-31T02:05:10;94653.88;;;15.64;59.44
7768;BME280;3928;42.626;23.382;2022-10-31T02:07:45;94660.53;;;15.71;58.59
7768;BME280;3928;42.626;23.382;2022-10-31T02:10:15;94657.13;;;15.69;58.90
7768;BME280;3928;42.626;23.382;2022-10-31T02:12:44;94661.03;;;15.55;59.14
7768;BME280;3928;42.626;23.382;2022-10-31T02:15:11;94669.00;;;15.47;59.74
7768;BME280;3928;42.626;23.382;2022-10-31T02:17:38;94662.09;;;15.47;59.63
7768;BME280;3928;42.626;23.382;2022-10-31T02:20:13;94547.72;;;14.82;59.76
7768;BME280;3928;42.626;23.382;2022-10-31T02:23:05;94665.34;;;15.54;59.40
7768;BME280;3928;42.626;23.382;2022-10-31T02:25:51;94658.38;;;15.56;59.37
7768;BME280;3928;42.626;23.382;2022-10-31T02:28:40;94666.91;;;15.60;59.94
7768;BME280;3928;42.626;23.382;2022-10-31T02:31:23;94667.63;;;15.65;59.69
7768;BME280;3928;42.626;23.382;2022-10-31T02:33:58;94671.81;;;15.69;59.55
7768;BME280;3928;42.626;23.382;2022-10-31T02:36:27;94672.56;;;15.72;59.29
7768;BME280;3928;42.626;23.382;2022-10-31T02:39:04;94679.44;;;15.73;59.40
7768;BME280;3928;42.626;23.382;2022-10-31T02:41:44;94680.31;;;15.72;59.54
7768;BME280;3928;42.626;23.382;2022-10-31T02:44:18;94686.41;;;15.71;59.59
7768;BME280;3928;42.626;23.382;2022-10-31T02:46:51;94680.53;;;15.66;59.64
7768;BME280;3928;42.626;23.382;2022-10-31T02:49:23;94685.69;;;15.66;60.39
7768;BME280;3928;42.626;23.382;2022-10-31T02:51:53;94682.28;;;15.66;60.18
7768;BME280;3928;42.626;23.382;2022-10-31T02:54:22;94681.47;;;15.64;60.71
7768;BME280;3928;42.626;23.382;2022-10-31T02:56:52;94679.81;;;15.61;60.36
7768;BME280;3928;42.626;23.382;2022-10-31T02:59:20;94690.09;;;15.64;61.21
7768;BME280;3928;42.626;23.382;2022-10-31T03:02:09;94684.19;;;15.58;61.76
7768;BME280;3928;42.626;23.382;2022-10-31T03:04:53;94696.94;;;15.65;61.71
7768;BME280;3928;42.626;23.382;2022-10-31T03:07:28;94686.59;;;15.65;62.15
7768;BME280;3928;42.626;23.382;2022-10-31T03:10:04;94698.44;;;15.72;61.62
7768;BME280;3928;42.626;23.382;2022-10-31T03:12:38;94683.84;;;15.70;61.49
7768;BME280;3928;42.626;23.382;2022-10-31T03:15:13;94690.56;;;15.77;61.48
7768;BME280;3928;42.626;23.382;2022-10-31T03:17:49;94692.16;;;15.81;61.33
7768;BME280;3928;42.626;23.382;2022-10-31T03:20:21;94687.03;;;15.79;61.16
7768;BME280;3928;42.626;23.382;2022-10-31T03:22:49;94687.88;;;15.80;61.22
7768;BME280;3928;42.626;23.382;2022-10-31T03:25:16;94689.66;;;15.78;61.13
7768;BME280;3928;42.626;23.382;2022-10-31T03:27:44;94695.59;;;15.82;61.03
7768;BME280;3928;42.626;23.382;2022-10-31T03:30:13;94688.66;;;15.82;61.51
7768;BME280;3928;42.626;23.382;2022-10-31T03:32:42;94699.84;;;15.83;61.69
7768;BME280;3928;42.626;23.382;2022-10-31T03:35:13;94684.59;;;15.73;61.75
7768;BME280;3928;42.626;23.382;2022-10-31T03:37:42;94700.75;;;15.82;62.26
7768;BME280;3928;42.626;23.382;2022-10-31T03:40:11;94704.25;;;15.81;61.92
7768;BME280;3928;42.626;23.382;2022-10-31T03:42:40;94691.56;;;15.71;61.19
7768;BME280;3928;42.626;23.382;2022-10-31T03:45:12;94705.97;;;15.80;61.03
7768;BME280;3928;42.626;23.382;2022-10-31T03:47:42;94708.63;;;15.78;60.88
7768;BME280;3928;42.626;23.382;2022-10-31T03:50:13;94704.34;;;15.77;60.75
7768;BME280;3928;42.626;23.382;2022-10-31T03:52:43;94707.78;;;15.78;60.72
7768;BME280;3928;42.626;23.382;2022-10-31T03:55:17;94708.63;;;15.78;61.50
7768;BME280;3928;42.626;23.382;2022-10-31T03:57:49;94703.63;;;15.72;61.33
7768;BME280;3928;42.626;23.382;2022-10-31T04:00:19;94720.66;;;15.79;61.57
7768;BME280;3928;42.626;23.382;2022-10-31T04:02:50;94722.34;;;15.81;61.27
7768;BME280;3928;42.626;23.382;2022-10-31T04:05:20;94729.22;;;15.82;61.48
7768;BME280;3928;42.626;23.382;2022-10-31T04:07:53;94731.00;;;15.79;61.82
7768;BME280;3928;42.626;23.382;2022-10-31T04:10:21;94726.69;;;15.80;62.56
7768;BME280;3928;42.626;23.382;2022-10-31T04:12:52;94729.31;;;15.78;62.71
7768;BME280;3928;42.626;23.382;2022-10-31T04:15:22;94728.53;;;15.76;62.41
7768;BME280;3928;42.626;23.382;2022-10-31T04:17:52;94738.06;;;15.74;62.70
7768;BME280;3928;42.626;23.382;2022-10-31T04:20:31;94736.56;;;15.67;62.71
7768;BME280;3928;42.626;23.382;2022-10-31T04:22:59;94735.09;;;15.57;62.95
7768;BME280;3928;42.626;23.382;2022-10-31T04:25:26;94731.03;;;15.48;63.51
7768;BME280;3928;42.626;23.382;2022-10-31T04:27:52;94732.16;;;15.40;64.12
7768;BME280;3928;42.626;23.382;2022-10-31T04:30:19;94727.84;;;15.40;64.18
7768;BME280;3928;42.626;23.382;2022-10-31T04:32:46;94729.59;;;15.38;64.74
7768;BME280;3928;42.626;23.382;2022-10-31T04:35:13;94731.31;;;15.38;64.71
7768;BME280;3928;42.626;23.382;2022-10-31T04:37:41;94732.16;;;15.38;64.97
7768;BME280;3928;42.626;23.382;2022-10-31T04:40:09;94739.91;;;15.40;64.77
7768;BME280;3928;42.626;23.382;2022-10-31T04:42:35;94736.44;;;15.41;64.98
7768;BME280;3928;42.626;23.382;2022-10-31T04:45:03;94734.81;;;15.37;65.98
7768;BME280;3928;42.626;23.382;2022-10-31T04:47:31;94746.00;;;15.37;65.82
7768;BME280;3928;42.626;23.382;2022-10-31T04:49:57;94739.94;;;15.38;66.27
7768;BME280;3928;42.626;23.382;2022-10-31T04:52:24;94739.22;;;15.33;66.16
7768;BME280;3928;42.626;23.382;2022-10-31T04:54:52;94747.84;;;15.34;67.13
7768;BME280;3928;42.626;23.382;2022-10-31T04:57:19;94747.84;;;15.34;66.68
7768;BME280;3928;42.626;23.382;2022-10-31T04:59:46;94713.03;;;15.14;66.46
7768;BME280;3928;42.626;23.382;2022-10-31T05:02:13;94755.34;;;15.43;66.09
7768;BME280;3928;42.626;23.382;2022-10-31T05:04:40;94755.34;;;15.43;65.27
7768;BME280;3928;42.626;23.382;2022-10-31T05:07:07;94750.97;;;15.45;64.87
7768;BME280;3928;42.626;23.382;2022-10-31T05:09:33;94749.38;;;15.41;65.21
7768;BME280;3928;42.626;23.382;2022-10-31T05:12:02;94748.94;;;15.25;65.73
7768;BME280;3928;42.626;23.382;2022-10-31T05:14:28;94750.09;;;15.13;65.67
7768;BME280;3928;42.626;23.382;2022-10-31T05:16:55;94755.22;;;15.15;66.62
7768;BME280;3928;42.626;23.382;2022-10-31T05:19:22;94753.59;;;15.12;66.34
7768;BME280;3928;42.626;23.382;2022-10-31T05:21:49;94759.00;;;15.03;67.84
7768;BME280;3928;42.626;23.382;2022-10-31T05:24:15;94761.53;;;15.06;67.74
7768;BME280;3928;42.626;23.382;2022-10-31T05:26:42;94768.19;;;15.13;67.97
7768;BME280;3928;42.626;23.382;2022-10-31T05:29:10;94769.78;;;15.19;67.65
7768;BME280;3928;42.626;23.382;2022-10-31T05:31:37;94776.56;;;15.23;66.93
7768;BME280;3928;42.626;23.382;2022-10-31T05:34:04;94774.81;;;15.24;66.55
7768;BME280;3928;42.626;23.382;2022-10-31T05:36:31;94775.56;;;15.29;66.46
7768;BME280;3928;42.626;23.382;2022-10-31T05:38:57;94750.72;;;15.23;66.43
7768;BME280;3928;42.626;23.382;2022-10-31T05:41:24;94770.94;;;15.40;65.57
7768;BME280;3928;42.626;23.382;2022-10-31T05:43:51;94788.78;;;15.49;64.72
7768;BME280;3928;42.626;23.382;2022-10-31T05:46:19;94784.44;;;15.49;64.98
7768;BME280;3928;42.626;23.382;2022-10-31T05:48:46;94783.53;;;15.52;64.70
7768;BME280;3928;42.626;23.382;2022-10-31T05:51:13;94788.66;;;15.54;64.72
7768;BME280;3928;42.626;23.382;2022-10-31T05:53:39;94790.41;;;15.53;64.10
7768;BME280;3928;42.626;23.382;2022-10-31T05:56:06;94785.13;;;15.56;64.57
7768;BME280;3928;42.626;23.382;2022-10-31T05:58:33;94798.97;;;15.55;64.06
7768;BME280;3928;42.626;23.382;2022-10-31T06:01:00;94793.69;;;15.58;64.62
7768;BME280;3928;42.626;23.382;2022-10-31T06:03:28;94798.88;;;15.58;64.87
7768;BME280;3928;42.626;23.382;2022-10-31T06:05:55;94759.22;;;15.27;64.66
7768;BME280;3928;42.626;23.382;2022-10-31T06:08:23;94809.31;;;15.55;65.29
7768;BME280;3928;42.626;23.382;2022-10-31T06:10:50;94809.47;;;15.49;64.97
7768;BME280;3928;42.626;23.382;2022-10-31T06:13:18;94814.31;;;15.30;66.16
7768;BME280;3928;42.626;23.382;2022-10-31T06:15:45;94810.94;;;15.28;65.75
7768;BME280;3928;42.626;23.382;2022-10-31T06:18:12;94809.09;;;15.32;66.40
7768;BME280;3928;42.626;23.382;2022-10-31T06:20:40;94816.66;;;15.38;67.44
7768;BME280;3928;42.626;23.382;2022-10-31T06:23:06;94817.31;;;15.46;67.70
7768;BME280;3928;42.626;23.382;2022-10-31T06:25:33;94820.59;;;15.53;68.60
7768;BME280;3928;42.626;23.382;2022-10-31T06:28:00;94828.84;;;15.67;68.73
7768;BME280;3928;42.626;23.382;2022-10-31T06:30:27;94830.91;;;15.85;68.43
7768;BME280;3928;42.626;23.382;2022-10-31T06:32:54;94776.97;;;15.71;66.96
7768;BME280;3928;42.626;23.382;2022-10-31T06:35:21;94818.03;;;16.13;65.52
7768;BME280;3928;42.626;23.382;2022-10-31T06:37:52;94831.13;;;16.36;65.56
7768;BME280;3928;42.626;23.382;2022-10-31T06:40:20;94842.38;;;16.63;64.60
7768;BME280;3928;42.626;23.382;2022-10-31T06:42:47;94836.28;;;16.92;63.46
7768;BME280;3928;42.626;23.382;2022-10-31T06:45:13;94838.03;;;17.18;61.15
7768;BME280;3928;42.626;23.382;2022-10-31T06:47:40;94840.34;;;17.51;60.74
7768;BME280;3928;42.626;23.382;2022-10-31T06:50:08;94843.97;;;17.72;57.57
7768;BME280;3928;42.626;23.382;2022-10-31T06:52:34;94842.41;;;17.91;58.51
7768;BME280;3928;42.626;23.382;2022-10-31T06:55:03;94842.34;;;18.16;57.26
7768;BME280;3928;42.626;23.382;2022-10-31T06:57:30;94843.28;;;18.37;56.19
7768;BME280;3928;42.626;23.382;2022-10-31T06:59:57;94842.63;;;18.54;55.03
7768;BME280;3928;42.626;23.382;2022-10-31T07:02:23;94837.94;;;18.63;53.89
7768;BME280;3928;42.626;23.382;2022-10-31T07:04:50;94839.38;;;18.70;53.62
7768;BME280;3928;42.626;23.382;2022-10-31T07:07:17;94839.34;;;18.72;53.15
7768;BME280;3928;42.626;23.382;2022-10-31T07:09:46;94844.44;;;18.75;52.29
7768;BME280;3928;42.626;23.382;2022-10-31T07:12:15;94827.84;;;18.78;53.35
7768;BME280;3928;42.626;23.382;2022-10-31T07:14:42;94840.50;;;18.87;53.08
7768;BME280;3928;42.626;23.382;2022-10-31T07:17:09;94838.66;;;18.89;52.46
7768;BME280;3928;42.626;23.382;2022-10-31T07:19:35;94828.34;;;18.87;52.82
7768;BME280;3928;42.626;23.382;2022-10-31T07:22:02;94830.88;;;18.89;52.16
7768;BME280;3928;42.626;23.382;2022-10-31T07:24:29;94821.44;;;18.86;52.04
7768;BME280;3928;42.626;23.382;2022-10-31T07:26:56;94816.03;;;18.91;52.63
7768;BME280;3928;42.626;23.382;2022-10-31T07:29:24;94803.31;;;18.85;52.46
7768;BME280;3928;42.626;23.382;2022-10-31T07:31:51;94818.50;;;18.94;52.47
7768;BME280;3928;42.626;23.382;2022-10-31T07:34:18;94822.88;;;18.93;53.12
7768;BME280;3928;42.626;23.382;2022-10-31T07:36:44;94821.00;;;18.97;53.18
7768;BME280;3928;42.626;23.382;2022-10-31T07:39:11;94816.44;;;19.02;53.03
7768;BME280;3928;42.626;23.382;2022-10-31T07:41:38;94818.06;;;19.05;53.11
7768;BME280;3928;42.626;23.382;2022-10-31T07:44:05;94818.88;;;19.07;53.01
7768;BME280;3928;42.626;23.382;2022-10-31T07:46:33;94815.38;;;19.08;53.42
7768;BME280;3928;42.626;23.382;2022-10-31T07:49:00;94825.44;;;19.15;53.70
7768;BME280;3928;42.626;23.382;2022-10-31T07:51:28;94823.69;;;19.16;53.11
7768;BME280;3928;42.626;23.382;2022-10-31T07:53:55;94830.63;;;19.15;53.22
7768;BME280;3928;42.626;23.382;2022-10-31T07:56:22;94823.81;;;19.13;53.83
7768;BME280;3928;42.626;23.382;2022-10-31T07:58:49;94831.69;;;19.11;53.83
7768;BME280;3928;42.626;23.382;2022-10-31T08:01:15;94830.97;;;19.08;53.91
7768;BME280;3928;42.626;23.382;2022-10-31T08:03:43;94830.84;;;19.11;53.67
7768;BME280;3928;42.626;23.382;2022-10-31T08:06:10;94825.88;;;19.05;53.63
7768;BME280;3928;42.626;23.382;2022-10-31T08:08:37;94830.13;;;19.07;54.14
7768;BME280;3928;42.626;23.382;2022-10-31T08:11:04;94827.56;;;19.06;53.89
7768;BME280;3928;42.626;23.382;2022-10-31T08:13:31;94827.47;;;19.09;53.90
7768;BME280;3928;42.626;23.382;2022-10-31T08:15:58;94825.72;;;19.09;53.68
7768;BME280;3928;42.626;23.382;2022-10-31T08:18:29;94827.69;;;19.03;54.16
7768;BME280;3928;42.626;23.382;2022-10-31T08:20:57;94826.72;;;19.05;54.68
7768;BME280;3928;42.626;23.382;2022-10-31T08:23:24;94825.16;;;19.01;54.81
7768;BME280;3928;42.626;23.382;2022-10-31T08:25:51;94834.16;;;19.14;55.02
7768;BME280;3928;42.626;23.382;2022-10-31T08:28:17;94832.25;;;19.18;54.22
7768;BME280;3928;42.626;23.382;2022-10-31T08:30:44;94834.69;;;19.22;54.04
7768;BME280;3928;42.626;23.382;2022-10-31T08:33:14;94833.84;;;19.22;53.92
7768;BME280;3928;42.626;23.382;2022-10-31T08:35:42;94824.91;;;19.27;53.21
7768;BME280;3928;42.626;23.382;2022-10-31T08:38:11;94827.84;;;19.40;53.27
7768;BME280;3928;42.626;23.382;2022-10-31T08:40:38;94806.84;;;19.45;53.10
7768;BME280;3928;42.626;23.382;2022-10-31T08:43:08;94824.44;;;19.60;52.75
7768;BME280;3928;42.626;23.382;2022-10-31T08:45:37;94822.22;;;19.71;52.61
7768;BME280;3928;42.626;23.382;2022-10-31T08:48:05;94817.44;;;19.81;51.70
7768;BME280;3928;42.626;23.382;2022-10-31T08:50:34;94821.81;;;19.80;51.16
7768;BME280;3928;42.626;23.382;2022-10-31T08:53:02;94822.28;;;19.89;50.95
7768;BME280;3928;42.626;23.382;2022-10-31T08:55:30;94821.53;;;19.86;50.81
7768;BME280;3928;42.626;23.382;2022-10-31T08:57:57;94817.88;;;19.91;50.91
7768;BME280;3928;42.626;23.382;2022-10-31T09:00:24;94812.25;;;20.00;51.20
7768;BME280;3928;42.626;23.382;2022-10-31T09:02:55;94816.91;;;20.12;51.05
7768;BME280;3928;42.626;23.382;2022-10-31T09:05:23;94817.91;;;20.28;51.14
7768;BME280;3928;42.626;23.382;2022-10-31T09:07:49;94817.91;;;20.47;50.53
7768;BME280;3928;42.626;23.382;2022-10-31T09:10:16;94814.38;;;20.67;48.73
7768;BME280;3928;42.626;23.382;2022-10-31T09:12:44;94808.72;;;20.76;48.19
7768;BME280;3928;42.626;23.382;2022-10-31T09:15:11;94820.53;;;20.83;47.76
7768;BME280;3928;42.626;23.382;2022-10-31T09:17:38;94818.63;;;20.87;47.08
7768;BME280;3928;42.626;23.382;2022-10-31T09:20:05;94820.41;;;21.03;47.46
7768;BME280;3928;42.626;23.382;2022-10-31T09:22:32;94816.97;;;21.20;46.69
7768;BME280;3928;42.626;23.382;2022-10-31T09:24:59;94814.38;;;21.38;46.35
7768;BME280;3928;42.626;23.382;2022-10-31T09:27:26;94815.66;;;21.64;46.54
7768;BME280;3928;42.626;23.382;2022-10-31T09:29:54;94809.91;;;21.90;45.51
7768;BME280;3928;42.626;23.382;2022-10-31T09:32:21;94808.59;;;22.16;44.61
7768;BME280;3928;42.626;23.382;2022-10-31T09:34:47;94805.31;;;22.44;44.16
7768;BME280;3928;42.626;23.382;2022-10-31T09:37:14;94804.88;;;22.67;43.70
7768;BME280;3928;42.626;23.382;2022-10-31T09:39:41;94809.50;;;22.94;42.04
7768;BME280;3928;42.626;23.382;2022-10-31T09:45:12;94810.00;;;23.30;42.02
7768;BME280;3928;42.626;23.382;2022-10-31T09:47:52;94794.91;;;23.50;41.04
7768;BME280;3928;42.626;23.382;2022-10-31T09:50:26;94808.38;;;23.88;40.74
7768;BME280;3928;42.626;23.382;2022-10-31T09:52:59;94812.28;;;24.24;40.12
7768;BME280;3928;42.626;23.382;2022-10-31T09:55:33;94804.91;;;24.44;38.96
7768;BME280;3928;42.626;23.382;2022-10-31T09:58:01;94796.72;;;24.63;38.68
7768;BME280;3928;42.626;23.382;2022-10-31T10:00:30;94799.78;;;24.97;37.78
7768;BME280;3928;42.626;23.382;2022-10-31T10:03:03;94792.44;;;25.29;37.17
7768;BME280;3928;42.626;23.382;2022-10-31T10:05:36;94794.72;;;25.60;36.64
7768;BME280;3928;42.626;23.382;2022-10-31T10:08:10;94791.28;;;25.85;36.25
7768;BME280;3928;42.626;23.382;2022-10-31T10:10:45;94785.91;;;26.12;35.79
7768;BME280;3928;42.626;23.382;2022-10-31T10:13:27;94786.19;;;26.46;34.46
7768;BME280;3928;42.626;23.382;2022-10-31T10:16:09;94783.41;;;26.84;33.96
7768;BME280;3928;42.626;23.382;2022-10-31T10:18:47;94774.03;;;27.17;33.58
7768;BME280;3928;42.626;23.382;2022-10-31T10:21:27;94772.78;;;27.45;32.64
7768;BME280;3928;42.626;23.382;2022-10-31T10:24:09;94780.09;;;27.76;32.55
7768;BME280;3928;42.626;23.382;2022-10-31T10:26:43;94771.25;;;28.00;31.22
7768;BME280;3928;42.626;23.382;2022-10-31T10:29:24;94775.56;;;28.01;31.02
7768;BME280;3928;42.626;23.382;2022-10-31T10:31:58;94765.00;;;28.23;31.53
7768;BME280;3928;42.626;23.382;2022-10-31T10:34:32;94759.38;;;28.50;31.16
7768;BME280;3928;42.626;23.382;2022-10-31T10:37:02;94757.78;;;28.70;29.48
7768;BME280;3928;42.626;23.382;2022-10-31T10:39:32;94762.44;;;28.89;29.87
7768;BME280;3928;42.626;23.382;2022-10-31T10:42:09;94747.84;;;29.05;29.48
7768;BME280;3928;42.626;23.382;2022-10-31T10:44:55;94750.72;;;29.34;29.01
7768;BME280;3928;42.626;23.382;2022-10-31T10:47:42;94749.59;;;29.69;28.09
7768;BME280;3928;42.626;23.382;2022-10-31T10:50:14;94752.84;;;29.73;27.52
7768;BME280;3928;42.626;23.382;2022-10-31T10:52:48;94748.59;;;29.60;28.16
7768;BME280;3928;42.626;23.382;2022-10-31T10:55:29;94746.47;;;29.43;29.16
7768;BME280;3928;42.626;23.382;2022-10-31T10:58:00;94747.81;;;29.17;28.92
7768;BME280;3928;42.626;23.382;2022-10-31T11:00:30;94754.72;;;28.86;29.03
7768;BME280;3928;42.626;23.382;2022-10-31T11:02:59;94749.63;;;28.62;29.52
7768;BME280;3928;42.626;23.382;2022-10-31T11:05:33;94746.06;;;28.40;29.57
7768;BME280;3928;42.626;23.382;2022-10-31T11:08:02;94735.63;;;28.05;29.77
7768;BME280;3928;42.626;23.382;2022-10-31T11:10:28;94736.34;;;27.96;30.23
7768;BME280;3928;42.626;23.382;2022-10-31T11:13:03;94731.41;;;28.03;30.29
7768;BME280;3928;42.626;23.382;2022-10-31T11:15:32;94731.91;;;28.19;30.78
7768;BME280;3928;42.626;23.382;2022-10-31T11:18:01;94723.75;;;28.44;30.07
7768;BME280;3928;42.626;23.382;2022-10-31T11:20:31;94721.97;;;28.88;29.61
7768;BME280;3928;42.626;23.382;2022-10-31T11:23:17;94719.13;;;29.33;28.77
7768;BME280;3928;42.626;23.382;2022-10-31T11:25:48;94710.56;;;29.61;28.79
7768;BME280;3928;42.626;23.382;2022-10-31T11:28:16;94716.50;;;29.75;28.09
7768;BME280;3928;42.626;23.382;2022-10-31T11:30:45;94696.16;;;29.33;28.07
7768;BME280;3928;42.626;23.382;2022-10-31T11:33:18;94711.31;;;29.31;28.07
7768;BME280;3928;42.626;23.382;2022-10-31T11:35:47;94707.56;;;29.34;27.91
7768;BME280;3928;42.626;23.382;2022-10-31T11:38:18;94707.19;;;29.38;28.45
7768;BME280;3928;42.626;23.382;2022-10-31T11:40:54;94705.81;;;29.44;28.24
7768;BME280;3928;42.626;23.382;2022-10-31T11:43:22;94699.41;;;29.58;28.11
7768;BME280;3928;42.626;23.382;2022-10-31T11:45:49;94698.22;;;29.72;27.54
7768;BME280;3928;42.626;23.382;2022-10-31T11:48:20;94692.91;;;29.72;27.64
7768;BME280;3928;42.626;23.382;2022-10-31T11:50:49;94698.41;;;29.59;27.61
7768;BME280;3928;42.626;23.382;2022-10-31T11:53:18;94683.28;;;29.40;28.08
7768;BME280;3928;42.626;23.382;2022-10-31T11:55:46;94690.47;;;29.49;28.04
7768;BME280;3928;42.626;23.382;2022-10-31T11:58:22;94679.88;;;29.49;27.89
7768;BME280;3928;42.626;23.382;2022-10-31T12:00:50;94695.00;;;29.47;27.53
7768;BME280;3928;42.626;23.382;2022-10-31T12:03:28;94688.16;;;29.24;27.65
7768;BME280;3928;42.626;23.382;2022-10-31T12:05:58;94685.56;;;29.12;28.44
7768;BME280;3928;42.626;23.382;2022-10-31T12:08:30;94684.69;;;29.02;28.62
7768;BME280;3928;42.626;23.382;2022-10-31T12:11:02;94683.25;;;28.87;29.09
7768;BME280;3928;42.626;23.382;2022-10-31T12:13:33;94687.38;;;28.91;29.07
7768;BME280;3928;42.626;23.382;2022-10-31T12:16:07;94685.78;;;28.57;28.44
7768;BME280;3928;42.626;23.382;2022-10-31T12:18:58;94692.19;;;28.43;29.01
7768;BME280;3928;42.626;23.382;2022-10-31T12:21:44;94687.50;;;28.46;29.44
7768;BME280;3928;42.626;23.382;2022-10-31T12:24:26;94690.16;;;28.78;28.92
7768;BME280;3928;42.626;23.382;2022-10-31T12:27:02;94677.00;;;29.20;28.91
7768;BME280;3928;42.626;23.382;2022-10-31T12:29:49;94676.88;;;29.42;27.60
7768;BME280;3928;42.626;23.382;2022-10-31T12:32:27;94679.53;;;29.63;28.35
7768;BME280;3928;42.626;23.382;2022-10-31T12:35:17;94683.97;;;30.24;27.25
7768;BME280;3928;42.626;23.382;2022-10-31T12:38:07;94681.47;;;30.92;26.59
7768;BME280;3928;42.626;23.382;2022-10-31T12:40:51;94675.19;;;31.31;26.13
7768;BME280;3928;42.626;23.382;2022-10-31T12:43:32;94676.84;;;31.98;25.54
7768;BME280;3928;42.626;23.382;2022-10-31T12:46:04;94686.03;;;32.41;24.83
7768;BME280;3928;42.626;23.382;2022-10-31T12:49:06;94675.47;;;33.12;23.63
7768;BME280;3928;42.626;23.382;2022-10-31T12:51:45;94669.91;;;33.67;22.95
7768;BME280;3928;42.626;23.382;2022-10-31T12:54:36;94686.03;;;34.18;22.66
7768;BME280;3928;42.626;23.382;2022-10-31T12:57:13;94675.28;;;34.36;22.03
7768;BME280;3928;42.626;23.382;2022-10-31T12:59:45;94673.81;;;34.07;22.71
7768;BME280;3928;42.626;23.382;2022-10-31T13:02:18;94684.13;;;34.02;22.51
7768;BME280;3928;42.626;23.382;2022-10-31T13:04:50;94682.19;;;34.20;22.75
7768;BME280;3928;42.626;23.382;2022-10-31T13:07:25;94676.03;;;34.46;22.22
7768;BME280;3928;42.626;23.382;2022-10-31T13:09:59;94689.44;;;34.70;21.69
7768;BME280;3928;42.626;23.382;2022-10-31T13:12:29;94680.50;;;35.04;22.01
7768;BME280;3928;42.626;23.382;2022-10-31T13:15:01;94674.19;;;35.21;21.55
7768;BME280;3928;42.626;23.382;2022-10-31T13:17:34;94685.38;;;35.49;21.47
7768;BME280;3928;42.626;23.382;2022-10-31T13:20:14;94690.50;;;35.75;21.36
7768;BME280;3928;42.626;23.382;2022-10-31T13:22:46;94673.47;;;35.84;20.64
7768;BME280;3928;42.626;23.382;2022-10-31T13:25:16;94680.81;;;35.98;20.35
7768;BME280;3928;42.626;23.382;2022-10-31T13:27:48;94687.50;;;36.02;20.25
7768;BME280;3928;42.626;23.382;2022-10-31T13:30:19;94680.19;;;35.88;20.56